createdAt,value
2019-01-22T00:01:07.093Z,31.10
2019-01-22T00:03:38.605Z,29.97
2019-01-22T00:06:10.094Z,31.97
2019-01-22T00:08:41.700Z,32.23
2019-01-22T00:11:13.147Z,32.20
2019-01-22T00:13:44.612Z,32.33
2019-01-22T00:16:28.137Z,29.93
2019-01-22T00:18:59.599Z,31.10
2019-01-22T00:21:43.483Z,28.73
2019-01-22T00:24:15.047Z,33.33
2019-01-22T00:26:46.485Z,28.53
2019-01-22T00:29:18.932Z,26.70
2019-01-22T00:31:50.253Z,32.20
2019-01-22T00:34:21.828Z,30.67
2019-01-22T00:36:53.310Z,27.80
2019-01-22T00:39:25.326Z,25.93
2019-01-22T00:41:56.895Z,26.43
2019-01-22T00:47:07.201Z,28.80
2019-01-22T00:49:38.858Z,29.07
2019-01-22T00:52:10.409Z,28.17
2019-01-22T00:54:41.792Z,28.47
2019-01-22T00:57:13.223Z,27.60
2019-01-22T00:59:44.608Z,30.70
2019-01-22T01:02:17.658Z,30.60
2019-01-22T01:05:00.932Z,31.67
2019-01-22T01:07:32.499Z,30.50
2019-01-22T01:10:05.136Z,29.13
2019-01-22T01:12:46.784Z,31.50
2019-01-22T01:15:18.186Z,27.37
2019-01-22T01:17:49.671Z,26.77
2019-01-22T01:20:22.058Z,27.77
2019-01-22T01:23:05.256Z,27.17
2019-01-22T01:25:36.697Z,25.80
2019-01-22T01:28:08.141Z,27.67
2019-01-22T01:30:51.219Z,27.10
2019-01-22T01:33:22.699Z,25.20
2019-01-22T01:35:54.069Z,28.83
2019-01-22T01:38:25.469Z,29.70
2019-01-22T01:41:09.229Z,29.60
2019-01-22T01:43:41.531Z,28.73
2019-01-22T01:46:24.921Z,32.27
2019-01-22T01:48:56.628Z,31.50
2019-01-22T01:51:27.972Z,32.10
2019-01-22T01:54:13.958Z,31.27
2019-01-22T01:56:45.593Z,31.57
2019-01-22T01:59:16.981Z,28.50
2019-01-22T02:01:48.464Z,28.67
2019-01-22T02:04:19.863Z,26.57
2019-01-22T02:06:51.215Z,26.63
2019-01-22T02:09:22.724Z,26.43
2019-01-22T02:11:54.088Z,26.60
2019-01-22T02:14:32.215Z,27.70
2019-01-22T02:17:23.140Z,28.57
2019-01-22T02:20:13.376Z,25.10
2019-01-22T02:23:13.355Z,26.67
2019-01-22T02:26:00.717Z,30.17
2019-01-22T02:28:56.905Z,26.73
2019-01-22T02:31:56.748Z,26.13
2019-01-22T02:34:39.934Z,25.73
2019-01-22T02:37:32.218Z,27.23
2019-01-22T02:40:34.629Z,25.47
2019-01-22T02:43:58.949Z,23.97
2019-01-22T02:47:09.553Z,25.10
2019-01-22T02:49:55.106Z,26.50
2019-01-22T02:52:49.573Z,25.67
2019-01-22T02:55:52.031Z,26.67
2019-01-22T02:59:13.586Z,25.73
2019-01-22T03:02:37.597Z,32.23
2019-01-22T03:05:59.671Z,27.00
2019-01-22T03:08:43.077Z,26.50
2019-01-22T03:11:58.637Z,29.93
2019-01-22T03:14:41.786Z,28.00
2019-01-22T03:17:25.304Z,26.87
2019-01-22T03:20:25.166Z,25.83
2019-01-22T03:23:20.474Z,26.53
2019-01-22T03:26:19.405Z,28.90
2019-01-22T03:29:27.537Z,30.20
2019-01-22T03:32:10.348Z,30.10
2019-01-22T03:35:21.245Z,29.73
2019-01-22T03:38:32.407Z,33.63
2019-01-22T03:41:35.788Z,27.10
2019-01-22T03:44:32.938Z,28.27
2019-01-22T03:47:48.335Z,29.80
2019-01-22T03:51:09.757Z,27.03
2019-01-22T03:54:26.418Z,27.47
2019-01-22T03:57:48.793Z,31.03
2019-01-22T04:00:43.017Z,28.93
2019-01-22T04:03:14.502Z,30.23
2019-01-22T04:05:47.843Z,30.10
2019-01-22T04:08:19.285Z,28.93
2019-01-22T04:11:17.052Z,27.53
2019-01-22T04:13:48.521Z,27.73
2019-01-22T04:16:19.902Z,28.23
2019-01-22T04:18:52.536Z,28.43
2019-01-22T04:21:28.405Z,28.77
2019-01-22T04:24:28.862Z,34.20
2019-01-22T04:27:10.489Z,29.20
2019-01-22T04:29:56.992Z,27.37
2019-01-22T04:32:53.899Z,28.73
2019-01-22T04:35:53.947Z,30.23
2019-01-22T04:38:38.010Z,30.43
2019-01-22T04:41:34.993Z,29.80
2019-01-22T04:44:51.361Z,30.10
2019-01-22T04:47:55.698Z,29.50
2019-01-22T04:50:36.979Z,26.57
2019-01-22T04:53:44.807Z,26.83
2019-01-22T04:56:45.030Z,27.20
2019-01-22T05:00:15.589Z,27.27
2019-01-22T05:03:06.621Z,30.90
2019-01-22T05:06:00.100Z,27.43
2019-01-22T05:09:15.863Z,27.53
2019-01-22T05:12:20.270Z,25.33
2019-01-22T05:15:30.633Z,28.67
2019-01-22T05:18:32.249Z,26.50
2019-01-22T05:21:56.485Z,28.60
2019-01-22T05:24:40.678Z,32.73
2019-01-22T05:27:23.628Z,30.47
2019-01-22T05:30:12.658Z,29.67
2019-01-22T05:32:54.625Z,30.37
2019-01-22T05:35:52.761Z,33.50
2019-01-22T05:39:02.378Z,33.93
2019-01-22T05:42:01.734Z,35.70
2019-01-22T05:45:07.962Z,29.53
2019-01-22T05:47:51.388Z,30.27
2019-01-22T05:50:51.704Z,29.17
2019-01-22T05:53:35.014Z,31.20
2019-01-22T05:56:11.577Z,29.33
2019-01-22T05:58:54.906Z,35.87
2019-01-22T06:01:30.389Z,31.93
2019-01-22T06:04:13.994Z,35.57
2019-01-22T06:07:29.408Z,30.57
2019-01-22T06:10:12.726Z,32.47
2019-01-22T06:13:07.077Z,34.03
2019-01-22T06:16:14.223Z,35.77
2019-01-22T06:19:29.318Z,30.97
2019-01-22T06:22:38.986Z,32.13
2019-01-22T06:25:31.013Z,30.90
2019-01-22T06:28:43.710Z,31.70
2019-01-22T06:31:46.885Z,29.43
2019-01-22T06:35:00.295Z,36.53
2019-01-22T06:37:41.684Z,36.00
2019-01-22T06:40:37.996Z,34.57
2019-01-22T06:43:40.152Z,32.40
2019-01-22T06:46:22.709Z,35.37
2019-01-22T06:49:44.225Z,35.57
2019-01-22T06:52:41.652Z,34.50
2019-01-22T06:55:24.292Z,29.80
2019-01-22T06:58:07.228Z,31.77
2019-01-22T07:01:19.493Z,33.23
2019-01-22T07:04:13.764Z,36.70
2019-01-22T07:07:38.581Z,31.97
2019-01-22T07:10:35.220Z,28.93
2019-01-22T07:13:39.857Z,29.50
2019-01-22T07:16:22.815Z,31.47
2019-01-22T07:19:38.385Z,34.70
2019-01-22T07:22:49.962Z,31.00
2019-01-22T07:26:02.547Z,31.50
2019-01-22T07:28:49.489Z,32.47
2019-01-22T07:31:33.198Z,29.00
2019-01-22T07:34:32.940Z,31.63
2019-01-22T07:37:30.112Z,31.80
2019-01-22T07:40:32.145Z,34.47
2019-01-22T07:43:15.102Z,39.33
2019-01-22T07:46:22.781Z,36.33
2019-01-22T07:49:30.844Z,33.70
2019-01-22T07:52:13.610Z,32.83
2019-01-22T07:55:21.942Z,33.07
2019-01-22T07:58:34.569Z,31.13
2019-01-22T08:01:17.884Z,35.40
2019-01-22T08:04:39.729Z,33.57
2019-01-22T08:07:20.352Z,34.80
2019-01-22T08:10:08.995Z,38.93
2019-01-22T08:12:51.867Z,34.70
2019-01-22T08:15:34.769Z,34.30
2019-01-22T08:18:18.508Z,36.70
2019-01-22T08:21:01.810Z,36.87
2019-01-22T08:23:53.585Z,44.40
2019-01-22T08:27:01.730Z,36.10
2019-01-22T08:30:13.093Z,37.93
2019-01-22T08:33:33.706Z,37.33
2019-01-22T08:36:48.767Z,35.97
2019-01-22T08:39:47.790Z,35.73
2019-01-22T08:42:44.668Z,33.23
2019-01-22T08:45:39.699Z,31.87
2019-01-22T08:48:42.867Z,33.00
2019-01-22T08:51:32.274Z,36.70
2019-01-22T08:54:43.254Z,31.30
2019-01-22T08:58:01.870Z,34.23
2019-01-22T09:00:56.129Z,33.83
2019-01-22T09:03:48.716Z,40.03
2019-01-22T09:06:41.016Z,36.67
2019-01-22T09:09:25.173Z,35.83
2019-01-22T09:12:27.829Z,33.07
2019-01-22T09:15:11.337Z,29.33
2019-01-22T09:18:20.999Z,29.47
2019-01-22T09:21:39.395Z,32.07
2019-01-22T09:24:47.721Z,31.07
2019-01-22T09:27:39.717Z,29.13
2019-01-22T09:30:32.800Z,29.53
2019-01-22T09:33:35.155Z,30.87
2019-01-22T09:36:43.125Z,29.57
2019-01-22T09:39:15.884Z,29.03
2019-01-22T09:41:47.552Z,27.43
2019-01-22T09:44:19.952Z,29.43
2019-01-22T09:46:51.364Z,27.13
2019-01-22T09:49:22.835Z,26.67
2019-01-22T09:52:06.222Z,28.27
2019-01-22T09:54:37.681Z,27.63
2019-01-22T09:57:09.061Z,28.00
2019-01-22T09:59:40.461Z,26.93
2019-01-22T10:02:23.887Z,27.07
2019-01-22T10:04:55.392Z,27.33
2019-01-22T10:07:26.740Z,26.10
2019-01-22T10:09:58.176Z,25.50
2019-01-22T10:12:29.553Z,24.83
2019-01-22T10:15:00.976Z,26.80
2019-01-22T10:17:32.273Z,24.77
2019-01-22T10:20:04.837Z,26.90
2019-01-22T10:22:36.202Z,25.30
2019-01-22T10:25:08.437Z,26.83
2019-01-22T10:27:39.828Z,29.10
2019-01-22T10:30:13.315Z,27.57
2019-01-22T10:32:44.685Z,28.07
2019-01-22T10:35:16.297Z,27.27
2019-01-22T10:37:47.821Z,27.07
2019-01-22T10:40:20.796Z,26.10
2019-01-22T10:42:52.231Z,26.50
2019-01-22T10:45:23.710Z,26.57
2019-01-22T10:47:55.065Z,29.17
2019-01-22T10:50:27.436Z,29.50
2019-01-22T10:52:58.775Z,28.60
2019-01-22T10:55:36.240Z,28.47
2019-01-22T10:58:03.813Z,27.27
2019-01-22T11:00:35.428Z,27.60
2019-01-22T11:03:06.802Z,27.80
2019-01-22T11:05:40.458Z,25.97
2019-01-22T11:08:24.009Z,27.03
2019-01-22T11:10:55.397Z,26.40
2019-01-22T11:13:38.761Z,27.27
2019-01-22T11:16:10.184Z,28.23
2019-01-22T11:18:41.577Z,28.00
2019-01-22T11:21:24.771Z,29.27
2019-01-22T11:23:56.170Z,27.37
2019-01-22T11:26:27.627Z,29.43
2019-01-22T11:29:10.813Z,30.70
2019-01-22T11:31:42.208Z,28.60
2019-01-22T11:34:13.610Z,28.47
2019-01-22T11:36:48.088Z,30.37
2019-01-22T11:39:19.453Z,28.03
2019-01-22T11:41:50.870Z,27.43
2019-01-22T11:44:22.253Z,29.00
2019-01-22T11:47:05.217Z,29.30
2019-01-22T11:49:36.645Z,29.10
2019-01-22T11:52:08.067Z,30.63
2019-01-22T11:54:39.348Z,33.07
2019-01-22T11:57:10.937Z,34.10
2019-01-22T11:59:42.348Z,30.20
2019-01-22T12:02:13.821Z,29.23
2019-01-22T12:04:45.270Z,31.03
2019-01-22T12:07:16.689Z,31.00
2019-01-22T12:09:59.400Z,30.53
2019-01-22T12:12:30.944Z,29.90
2019-01-22T12:15:02.332Z,28.87
2019-01-22T12:17:33.908Z,29.33
2019-01-22T12:20:08.954Z,29.23
2019-01-22T12:22:40.418Z,28.17
2019-01-22T12:25:11.881Z,31.90
2019-01-22T12:27:55.408Z,28.90
2019-01-22T12:30:29.066Z,30.70
2019-01-22T12:33:00.456Z,30.43
2019-01-22T12:35:31.983Z,29.10
2019-01-22T12:38:03.359Z,28.40
2019-01-22T12:40:34.740Z,27.60
2019-01-22T12:43:06.732Z,30.97
2019-01-22T12:45:39.256Z,29.77
2019-01-22T12:48:10.840Z,26.80
2019-01-22T12:50:42.485Z,28.47
2019-01-22T12:53:14.290Z,27.33
2019-01-22T12:55:45.700Z,32.17
2019-01-22T12:58:17.153Z,29.77
2019-01-22T13:00:48.661Z,27.00
2019-01-22T13:03:20.011Z,28.47
2019-01-22T13:05:54.665Z,32.37
2019-01-22T13:08:26.101Z,29.53
2019-01-22T13:10:57.438Z,31.70
2019-01-22T13:13:28.826Z,28.47
2019-01-22T13:16:00.173Z,29.80
2019-01-22T13:18:31.665Z,27.27
2019-01-22T13:21:03.061Z,31.23
2019-01-22T13:23:34.478Z,28.07
2019-01-22T13:26:11.484Z,29.30
2019-01-22T13:28:39.229Z,27.70
2019-01-22T13:31:10.658Z,27.17
2019-01-22T13:33:42.064Z,27.33
2019-01-22T13:36:13.429Z,29.57
2019-01-22T13:41:08.224Z,29.70
2019-01-22T13:43:39.588Z,29.07
2019-01-22T13:46:11.098Z,27.50
2019-01-22T13:48:43.385Z,28.80
2019-01-22T13:51:14.823Z,27.10
2019-01-22T13:53:46.185Z,27.33
2019-01-22T13:56:18.678Z,27.50
2019-01-22T13:58:50.265Z,27.70
2019-01-22T14:01:21.689Z,30.10
2019-01-22T14:03:53.082Z,28.80
2019-01-22T14:06:24.473Z,29.37
2019-01-22T14:08:55.868Z,27.33
2019-01-22T14:11:39.393Z,31.87
2019-01-22T14:14:10.673Z,29.20
2019-01-22T14:16:42.101Z,30.80
2019-01-22T14:19:13.561Z,27.60
2019-01-22T14:21:44.942Z,30.50
2019-01-22T14:24:16.900Z,30.97
2019-01-22T14:26:48.887Z,28.30
2019-01-22T14:29:20.272Z,28.63
2019-01-22T14:32:03.373Z,29.57
2019-01-22T14:34:35.008Z,29.33
2019-01-22T14:37:06.462Z,29.53
2019-01-22T14:39:37.740Z,29.03
2019-01-22T14:42:09.138Z,29.70
2019-01-22T14:44:40.401Z,30.67
2019-01-22T14:47:11.814Z,30.33
2019-01-22T14:49:43.978Z,31.73
2019-01-22T14:52:15.403Z,31.00
2019-01-22T14:54:46.688Z,30.97
2019-01-22T14:57:21.487Z,29.73
2019-01-22T14:59:51.342Z,30.90
2019-01-22T15:02:34.989Z,32.50
2019-01-22T15:05:09.569Z,28.67
2019-01-22T15:07:41.094Z,29.27
2019-01-22T15:10:13.406Z,33.37
2019-01-22T15:12:45.904Z,34.47
2019-01-22T15:15:18.513Z,39.10
2019-01-22T15:18:02.427Z,41.90
2019-01-22T15:20:33.950Z,40.77
2019-01-22T15:23:18.768Z,41.53
2019-01-22T15:25:50.195Z,40.07
2019-01-22T15:28:21.617Z,36.83
2019-01-22T15:30:53.037Z,31.57
2019-01-22T15:33:24.428Z,30.37
2019-01-22T15:35:55.917Z,32.60
2019-01-22T15:38:27.474Z,31.93
2019-01-22T15:40:58.836Z,30.43
2019-01-22T15:43:30.278Z,30.87
2019-01-22T15:46:03.748Z,28.33
2019-01-22T15:48:35.222Z,29.07
2019-01-22T15:51:06.640Z,33.23
2019-01-22T15:53:38.862Z,29.80
2019-01-22T15:56:10.369Z,32.97
2019-01-22T15:58:41.761Z,29.53
2019-01-22T16:01:25.400Z,31.27
2019-01-22T16:04:08.917Z,35.50
2019-01-22T16:06:51.974Z,38.77
2019-01-22T16:09:23.542Z,32.73
2019-01-22T16:11:56.213Z,30.87
2019-01-22T16:14:39.965Z,32.07
2019-01-22T16:17:11.400Z,32.67
2019-01-22T16:19:42.812Z,33.23
2019-01-22T16:22:14.385Z,35.83
2019-01-22T16:24:58.243Z,33.70
2019-01-22T16:27:41.664Z,37.23
2019-01-22T16:30:15.934Z,34.87
2019-01-22T16:32:48.643Z,38.17
2019-01-22T16:35:23.008Z,39.83
2019-01-22T16:37:57.480Z,35.30
2019-01-22T16:40:40.777Z,39.53
2019-01-22T16:43:33.947Z,40.70
2019-01-22T16:46:05.696Z,38.50
2019-01-22T16:48:39.087Z,41.53
2019-01-22T16:51:10.869Z,40.50
2019-01-22T16:53:42.254Z,44.23
2019-01-22T16:56:13.692Z,40.60
2019-01-22T16:58:56.684Z,41.43
2019-01-22T17:01:39.690Z,37.47
2019-01-22T17:04:11.975Z,40.03
2019-01-22T17:06:55.545Z,42.30
2019-01-22T17:09:27.045Z,40.77
2019-01-22T17:12:10.214Z,41.73
2019-01-22T17:14:53.616Z,48.97
2019-01-22T17:17:25.474Z,43.83
2019-01-22T17:19:56.916Z,40.83
2019-01-22T17:22:40.742Z,41.03
2019-01-22T17:25:23.618Z,42.50
2019-01-22T17:27:55.297Z,43.13
2019-01-22T17:30:38.659Z,43.73
2019-01-22T17:33:29.564Z,45.90
2019-01-22T17:36:04.588Z,47.97
2019-01-22T17:38:56.824Z,41.60
2019-01-22T17:41:47.374Z,44.27
2019-01-22T17:44:18.784Z,41.47
2019-01-22T17:46:50.224Z,39.70
2019-01-22T17:49:22.270Z,42.80
2019-01-22T17:51:53.640Z,44.90
2019-01-22T17:54:25.149Z,40.87
2019-01-22T17:57:13.657Z,45.97
2019-01-22T17:59:53.121Z,44.27
2019-01-22T18:02:24.600Z,40.37
2019-01-22T18:04:56.028Z,44.37
2019-01-22T18:07:30.376Z,45.30
2019-01-22T18:10:13.850Z,42.67
2019-01-22T18:12:45.209Z,42.03
2019-01-22T18:15:17.661Z,44.27
2019-01-22T18:17:49.062Z,42.70
2019-01-22T18:20:32.438Z,47.10
2019-01-22T18:23:15.664Z,43.43
2019-01-22T18:25:47.169Z,41.90
2019-01-22T18:28:18.847Z,37.80
2019-01-22T18:30:50.282Z,46.73
2019-01-22T18:33:21.683Z,48.17
2019-01-22T18:35:54.146Z,43.53
2019-01-22T18:38:25.516Z,47.17
2019-01-22T18:40:57.017Z,41.00
2019-01-22T18:43:28.364Z,48.83
2019-01-22T18:46:00.098Z,49.17
2019-01-22T18:48:31.476Z,46.30
2019-01-22T18:51:15.768Z,47.73
2019-01-22T18:53:47.277Z,48.10
2019-01-22T18:56:30.074Z,44.30
2019-01-22T18:59:01.465Z,47.30
2019-01-22T19:01:44.814Z,49.90
2019-01-22T19:04:16.275Z,42.80
2019-01-22T19:06:47.695Z,45.50
2019-01-22T19:09:19.068Z,46.90
2019-01-22T19:11:50.530Z,42.47
2019-01-22T19:14:33.755Z,43.97
2019-01-22T19:17:05.140Z,43.10
2019-01-22T19:19:37.656Z,38.53
2019-01-22T19:22:09.097Z,40.13
2019-01-22T19:24:40.329Z,44.93
2019-01-22T19:27:11.740Z,42.77
2019-01-22T19:29:45.870Z,42.00
2019-01-22T19:32:17.312Z,38.37
2019-01-22T19:34:48.782Z,39.17
2019-01-22T19:37:20.162Z,37.03
2019-01-22T19:39:51.515Z,38.37
2019-01-22T19:42:35.106Z,40.27
2019-01-22T19:45:09.931Z,37.70
2019-01-22T19:47:41.467Z,33.07
2019-01-22T19:50:24.565Z,36.50
2019-01-22T19:52:55.971Z,36.30
2019-01-22T19:55:27.380Z,36.13
2019-01-22T19:57:58.801Z,33.13
2019-01-22T20:00:32.601Z,36.83
2019-01-22T20:03:05.601Z,40.13
2019-01-22T20:05:37.945Z,34.30
2019-01-22T20:08:20.741Z,34.20
2019-01-22T20:11:04.110Z,40.67
2019-01-22T20:13:35.535Z,32.67
2019-01-22T20:16:06.927Z,33.37
2019-01-22T20:18:38.559Z,33.33
2019-01-22T20:21:22.185Z,30.90
2019-01-22T20:23:53.620Z,32.57
2019-01-22T20:26:37.221Z,32.63
2019-01-22T20:29:20.920Z,33.87
2019-01-22T20:32:04.438Z,37.13
2019-01-22T20:34:47.629Z,32.13
2019-01-22T20:37:30.549Z,31.17
2019-01-22T20:40:13.625Z,36.17
2019-01-22T20:42:56.353Z,34.70
2019-01-22T20:45:39.857Z,36.93
2019-01-22T20:48:26.124Z,34.20
2019-01-22T20:51:08.830Z,35.87
2019-01-22T20:53:51.602Z,33.43
2019-01-22T20:56:34.972Z,30.77
2019-01-22T20:59:18.360Z,35.30
2019-01-22T21:01:49.668Z,35.37
2019-01-22T21:04:21.036Z,32.20
2019-01-22T21:06:52.536Z,37.53
2019-01-22T21:09:43.077Z,33.50
2019-01-22T21:12:14.467Z,32.40
2019-01-22T21:14:45.785Z,34.93
2019-01-22T21:17:17.205Z,36.97
2019-01-22T21:19:48.924Z,32.50
2019-01-22T21:22:20.434Z,30.93
2019-01-22T21:25:11.617Z,31.97
2019-01-22T21:28:01.300Z,32.93
2019-01-22T21:30:39.634Z,31.73
2019-01-22T21:33:23.122Z,34.93
2019-01-22T21:36:06.233Z,35.00
2019-01-22T21:38:49.498Z,32.73
2019-01-22T21:41:33.052Z,34.03
2019-01-22T21:44:16.105Z,31.40
2019-01-22T21:47:01.122Z,32.77
2019-01-22T21:49:44.184Z,30.13
2019-01-22T21:52:27.412Z,33.63
2019-01-22T21:55:10.660Z,34.03
2019-01-22T21:57:53.364Z,30.53
2019-01-22T22:00:36.923Z,31.43
2019-01-22T22:03:18.521Z,35.53
2019-01-22T22:06:02.024Z,33.97
2019-01-22T22:08:45.199Z,31.30
2019-01-22T22:11:28.109Z,33.90
2019-01-22T22:14:11.305Z,31.07
2019-01-22T22:16:54.503Z,31.20
2019-01-22T22:19:37.285Z,31.70
2019-01-22T22:22:20.166Z,34.43
2019-01-22T22:25:03.450Z,30.77
2019-01-22T22:27:47.030Z,30.13
2019-01-22T22:30:29.964Z,34.17
2019-01-22T22:33:13.170Z,35.97
2019-01-22T22:35:56.615Z,34.07
2019-01-22T22:38:40.142Z,36.10
2019-01-22T22:41:23.174Z,32.43
2019-01-22T22:44:06.121Z,35.27
2019-01-22T22:46:49.008Z,33.70
2019-01-22T22:49:32.277Z,35.63
2019-01-22T22:52:15.206Z,36.23
2019-01-22T22:54:58.644Z,35.27
2019-01-22T22:57:42.239Z,36.20
2019-01-22T23:00:46.135Z,37.73
2019-01-22T23:03:41.475Z,35.07
2019-01-22T23:06:24.637Z,36.23
2019-01-22T23:09:10.822Z,38.23
2019-01-22T23:11:53.778Z,39.77
2019-01-22T23:14:36.521Z,34.73
2019-01-22T23:17:19.594Z,35.00
2019-01-22T23:20:02.681Z,38.27
2019-01-22T23:22:46.737Z,34.07
2019-01-22T23:25:29.669Z,34.50
2019-01-22T23:28:14.113Z,36.67
2019-01-22T23:30:57.493Z,36.70
2019-01-22T23:33:40.465Z,35.77
2019-01-22T23:36:23.877Z,35.77
2019-01-22T23:39:07.186Z,32.77
2019-01-22T23:41:50.700Z,34.23
2019-01-22T23:44:33.771Z,38.63
2019-01-22T23:47:17.374Z,37.93
2019-01-22T23:50:00.325Z,40.10
2019-01-22T23:52:43.516Z,35.60
2019-01-22T23:55:27.097Z,36.23
2019-01-22T23:58:10.361Z,36.87
